sensor_id;sensor_type;location;lat;lon;timestamp;P1;durP1;ratioP1;P2;durP2;ratioP2
11490;SDS011;5802;52.832;4.758;2022-12-07T00:02:25;7.88;;;5.85;;
11490;SDS011;5802;52.832;4.758;2022-12-07T00:04:52;7.95;;;5.72;;
11490;SDS011;5802;52.832;4.758;2022-12-07T00:07:19;8.30;;;5.82;;
11490;SDS011;5802;52.832;4.758;2022-12-07T00:09:45;8.40;;;6.30;;
11490;SDS011;5802;52.832;4.758;2022-12-07T00:12:13;8.48;;;6.03;;
11490;SDS011;5802;52.832;4.758;2022-12-07T00:14:40;8.25;;;5.40;;
11490;SDS011;5802;52.832;4.758;2022-12-07T00:17:07;9.10;;;5.32;;
11490;SDS011;5802;52.832;4.758;2022-12-07T00:19:33;6.47;;;4.93;;
11490;SDS011;5802;52.832;4.758;2022-12-07T00:22:00;7.32;;;5.18;;
11490;SDS011;5802;52.832;4.758;2022-12-07T00:24:27;6.95;;;4.95;;
11490;SDS011;5802;52.832;4.758;2022-12-07T00:26:53;7.57;;;5.30;;
11490;SDS011;5802;52.832;4.758;2022-12-07T00:29:21;7.13;;;4.82;;
11490;SDS011;5802;52.832;4.758;2022-12-07T00:31:48;6.60;;;4.70;;
11490;SDS011;5802;52.832;4.758;2022-12-07T00:34:16;6.78;;;4.88;;
11490;SDS011;5802;52.832;4.758;2022-12-07T00:36:45;6.65;;;4.57;;
11490;SDS011;5802;52.832;4.758;2022-12-07T00:39:12;7.03;;;4.95;;
11490;SDS011;5802;52.832;4.758;2022-12-07T00:41:39;7.05;;;4.57;;
11490;SDS011;5802;52.832;4.758;2022-12-07T00:44:05;6.45;;;4.30;;
11490;SDS011;5802;52.832;4.758;2022-12-07T00:46:33;5.95;;;4.32;;
11490;SDS011;5802;52.832;4.758;2022-12-07T00:49:00;6.53;;;4.30;;
11490;SDS011;5802;52.832;4.758;2022-12-07T00:51:27;5.78;;;4.15;;
11490;SDS011;5802;52.832;4.758;2022-12-07T00:53:53;7.45;;;4.13;;
11490;SDS011;5802;52.832;4.758;2022-12-07T00:56:21;6.72;;;3.72;;
11490;SDS011;5802;52.832;4.758;2022-12-07T00:58:49;5.70;;;4.45;;
11490;SDS011;5802;52.832;4.758;2022-12-07T01:01:17;6.13;;;4.07;;
11490;SDS011;5802;52.832;4.758;2022-12-07T01:03:45;8.07;;;4.05;;
11490;SDS011;5802;52.832;4.758;2022-12-07T01:06:14;7.95;;;4.05;;
11490;SDS011;5802;52.832;4.758;2022-12-07T01:08:41;5.53;;;3.85;;
11490;SDS011;5802;52.832;4.758;2022-12-07T01:11:09;4.90;;;3.83;;
11490;SDS011;5802;52.832;4.758;2022-12-07T01:13:38;6.15;;;4.07;;
11490;SDS011;5802;52.832;4.758;2022-12-07T01:16:05;5.28;;;3.90;;
11490;SDS011;5802;52.832;4.758;2022-12-07T01:18:34;6.95;;;3.50;;
11490;SDS011;5802;52.832;4.758;2022-12-07T01:21:04;5.25;;;3.53;;
11490;SDS011;5802;52.832;4.758;2022-12-07T01:23:32;4.80;;;3.60;;
11490;SDS011;5802;52.832;4.758;2022-12-07T01:26:04;4.55;;;3.33;;
11490;SDS011;5802;52.832;4.758;2022-12-07T01:28:32;5.70;;;3.42;;
11490;SDS011;5802;52.832;4.758;2022-12-07T01:31:00;4.40;;;3.03;;
11490;SDS011;5802;52.832;4.758;2022-12-07T01:33:28;4.82;;;3.28;;
11490;SDS011;5802;52.832;4.758;2022-12-07T01:36:00;4.90;;;3.35;;
11490;SDS011;5802;52.832;4.758;2022-12-07T01:38:30;4.15;;;3.30;;
11490;SDS011;5802;52.832;4.758;2022-12-07T01:40:59;6.13;;;3.75;;
11490;SDS011;5802;52.832;4.758;2022-12-07T01:43:27;3.75;;;2.80;;
11490;SDS011;5802;52.832;4.758;2022-12-07T01:45:55;3.80;;;3.05;;
11490;SDS011;5802;52.832;4.758;2022-12-07T01:48:23;4.78;;;2.80;;
11490;SDS011;5802;52.832;4.758;2022-12-07T01:50:53;3.97;;;2.85;;
11490;SDS011;5802;52.832;4.758;2022-12-07T01:53:23;3.60;;;2.83;;
11490;SDS011;5802;52.832;4.758;2022-12-07T01:55:52;4.32;;;2.55;;
11490;SDS011;5802;52.832;4.758;2022-12-07T01:58:20;2.55;;;2.20;;
11490;SDS011;5802;52.832;4.758;2022-12-07T02:00:47;7.13;;;3.10;;
11490;SDS011;5802;52.832;4.758;2022-12-07T02:03:15;5.78;;;2.92;;
11490;SDS011;5802;52.832;4.758;2022-12-07T02:05:45;3.88;;;2.78;;
11490;SDS011;5802;52.832;4.758;2022-12-07T02:08:14;3.83;;;2.70;;
11490;SDS011;5802;52.832;4.758;2022-12-07T02:10:42;4.07;;;2.60;;
11490;SDS011;5802;52.832;4.758;2022-12-07T02:13:11;3.63;;;2.42;;
11490;SDS011;5802;52.832;4.758;2022-12-07T02:15:44;4.00;;;2.58;;
11490;SDS011;5802;52.832;4.758;2022-12-07T02:18:19;4.05;;;2.35;;
11490;SDS011;5802;52.832;4.758;2022-12-07T02:20:54;4.55;;;2.58;;
11490;SDS011;5802;52.832;4.758;2022-12-07T02:23:38;3.20;;;2.38;;
11490;SDS011;5802;52.832;4.758;2022-12-07T02:29:21;4.25;;;2.42;;
11490;SDS011;5802;52.832;4.758;2022-12-07T02:31:53;3.65;;;2.33;;
11490;SDS011;5802;52.832;4.758;2022-12-07T02:34:28;4.03;;;2.30;;
11490;SDS011;5802;52.832;4.758;2022-12-07T02:37:01;3.72;;;2.40;;
11490;SDS011;5802;52.832;4.758;2022-12-07T02:39:37;3.15;;;2.17;;
11490;SDS011;5802;52.832;4.758;2022-12-07T02:42:09;5.45;;;2.60;;
11490;SDS011;5802;52.832;4.758;2022-12-07T02:44:42;3.38;;;2.33;;
11490;SDS011;5802;52.832;4.758;2022-12-07T02:47:12;3.80;;;2.15;;
11490;SDS011;5802;52.832;4.758;2022-12-07T02:49:42;5.25;;;2.30;;
11490;SDS011;5802;52.832;4.758;2022-12-07T02:52:09;3.05;;;2.15;;
11490;SDS011;5802;52.832;4.758;2022-12-07T02:54:35;3.58;;;2.38;;
11490;SDS011;5802;52.832;4.758;2022-12-07T02:57:04;3.88;;;2.47;;
11490;SDS011;5802;52.832;4.758;2022-12-07T02:59:46;4.22;;;2.13;;
11490;SDS011;5802;52.832;4.758;2022-12-07T03:02:23;3.75;;;2.28;;
11490;SDS011;5802;52.832;4.758;2022-12-07T03:04:56;3.22;;;2.15;;
11490;SDS011;5802;52.832;4.758;2022-12-07T03:07:33;2.75;;;1.90;;
11490;SDS011;5802;52.832;4.758;2022-12-07T03:10:07;4.35;;;1.92;;
11490;SDS011;5802;52.832;4.758;2022-12-07T03:12:42;2.35;;;1.85;;
11490;SDS011;5802;52.832;4.758;2022-12-07T03:15:14;2.95;;;2.10;;
11490;SDS011;5802;52.832;4.758;2022-12-07T03:17:46;2.53;;;1.88;;
11490;SDS011;5802;52.832;4.758;2022-12-07T03:20:15;3.30;;;2.13;;
11490;SDS011;5802;52.832;4.758;2022-12-07T03:22:46;2.67;;;2.05;;
11490;SDS011;5802;52.832;4.758;2022-12-07T03:25:13;2.53;;;1.80;;
11490;SDS011;5802;52.832;4.758;2022-12-07T03:27:43;2.45;;;1.80;;
11490;SDS011;5802;52.832;4.758;2022-12-07T03:30:19;2.50;;;1.63;;
11490;SDS011;5802;52.832;4.758;2022-12-07T03:32:48;3.08;;;1.83;;
11490;SDS011;5802;52.832;4.758;2022-12-07T03:35:19;3.42;;;2.08;;
11490;SDS011;5802;52.832;4.758;2022-12-07T03:37:51;3.55;;;1.80;;
11490;SDS011;5802;52.832;4.758;2022-12-07T03:40:22;2.47;;;1.60;;
11490;SDS011;5802;52.832;4.758;2022-12-07T03:42:54;1.90;;;1.40;;
11490;SDS011;5802;52.832;4.758;2022-12-07T03:45:27;3.28;;;1.80;;
11490;SDS011;5802;52.832;4.758;2022-12-07T03:48:02;2.60;;;1.95;;
11490;SDS011;5802;52.832;4.758;2022-12-07T03:50:36;3.00;;;1.80;;
11490;SDS011;5802;52.832;4.758;2022-12-07T03:53:09;3.78;;;1.92;;
11490;SDS011;5802;52.832;4.758;2022-12-07T03:55:41;2.88;;;1.83;;
11490;SDS011;5802;52.832;4.758;2022-12-07T03:58:11;2.97;;;1.70;;
11490;SDS011;5802;52.832;4.758;2022-12-07T04:00:43;4.80;;;2.03;;
11490;SDS011;5802;52.832;4.758;2022-12-07T04:03:10;3.17;;;1.92;;
11490;SDS011;5802;52.832;4.758;2022-12-07T04:05:37;2.17;;;1.65;;
11490;SDS011;5802;52.832;4.758;2022-12-07T04:08:05;3.42;;;2.10;;
11490;SDS011;5802;52.832;4.758;2022-12-07T04:10:31;2.92;;;1.80;;
11490;SDS011;5802;52.832;4.758;2022-12-07T04:12:58;4.57;;;1.75;;
11490;SDS011;5802;52.832;4.758;2022-12-07T04:15:25;1.70;;;1.42;;
11490;SDS011;5802;52.832;4.758;2022-12-07T04:17:53;2.63;;;1.40;;
11490;SDS011;5802;52.832;4.758;2022-12-07T04:20:21;2.47;;;1.65;;
11490;SDS011;5802;52.832;4.758;2022-12-07T04:22:47;2.40;;;1.52;;
11490;SDS011;5802;52.832;4.758;2022-12-07T04:25:14;2.50;;;1.67;;
11490;SDS011;5802;52.832;4.758;2022-12-07T04:27:41;2.75;;;1.50;;
11490;SDS011;5802;52.832;4.758;2022-12-07T04:30:09;3.13;;;1.38;;
11490;SDS011;5802;52.832;4.758;2022-12-07T04:32:36;2.92;;;1.58;;
11490;SDS011;5802;52.832;4.758;2022-12-07T04:35:05;2.88;;;1.73;;
11490;SDS011;5802;52.832;4.758;2022-12-07T04:37:32;2.97;;;1.50;;
11490;SDS011;5802;52.832;4.758;2022-12-07T04:39:58;1.60;;;1.33;;
11490;SDS011;5802;52.832;4.758;2022-12-07T04:42:25;2.85;;;1.30;;
11490;SDS011;5802;52.832;4.758;2022-12-07T04:44:52;1.67;;;1.23;;
11490;SDS011;5802;52.832;4.758;2022-12-07T04:47:18;2.13;;;1.33;;
11490;SDS011;5802;52.832;4.758;2022-12-07T04:49:45;2.78;;;1.30;;
11490;SDS011;5802;52.832;4.758;2022-12-07T04:52:13;2.05;;;1.30;;
11490;SDS011;5802;52.832;4.758;2022-12-07T04:54:40;2.45;;;1.30;;
11490;SDS011;5802;52.832;4.758;2022-12-07T04:57:06;1.60;;;1.10;;
11490;SDS011;5802;52.832;4.758;2022-12-07T04:59:33;2.53;;;1.55;;
11490;SDS011;5802;52.832;4.758;2022-12-07T05:02:00;3.92;;;1.15;;
11490;SDS011;5802;52.832;4.758;2022-12-07T05:04:26;1.63;;;1.05;;
11490;SDS011;5802;52.832;4.758;2022-12-07T05:06:53;1.92;;;1.30;;
11490;SDS011;5802;52.832;4.758;2022-12-07T05:09:21;2.25;;;1.20;;
11490;SDS011;5802;52.832;4.758;2022-12-07T05:11:48;3.38;;;1.40;;
11490;SDS011;5802;52.832;4.758;2022-12-07T05:14:15;2.05;;;1.20;;
11490;SDS011;5802;52.832;4.758;2022-12-07T05:16:43;2.97;;;1.17;;
11490;SDS011;5802;52.832;4.758;2022-12-07T05:19:11;2.25;;;1.33;;
11490;SDS011;5802;52.832;4.758;2022-12-07T05:21:38;5.05;;;1.23;;
11490;SDS011;5802;52.832;4.758;2022-12-07T05:24:06;2.28;;;1.00;;
11490;SDS011;5802;52.832;4.758;2022-12-07T05:26:35;1.63;;;0.98;;
11490;SDS011;5802;52.832;4.758;2022-12-07T05:29:02;1.63;;;1.00;;
11490;SDS011;5802;52.832;4.758;2022-12-07T05:31:28;2.33;;;1.10;;
11490;SDS011;5802;52.832;4.758;2022-12-07T05:33:55;2.17;;;1.23;;
11490;SDS011;5802;52.832;4.758;2022-12-07T05:36:22;0.98;;;0.88;;
11490;SDS011;5802;52.832;4.758;2022-12-07T05:38:49;2.85;;;0.95;;
11490;SDS011;5802;52.832;4.758;2022-12-07T05:41:16;3.88;;;1.17;;
11490;SDS011;5802;52.832;4.758;2022-12-07T05:44:03;1.63;;;1.08;;
11490;SDS011;5802;52.832;4.758;2022-12-07T05:46:30;1.73;;;1.00;;
11490;SDS011;5802;52.832;4.758;2022-12-07T05:48:57;1.83;;;0.98;;
11490;SDS011;5802;52.832;4.758;2022-12-07T05:51:24;0.90;;;0.70;;
11490;SDS011;5802;52.832;4.758;2022-12-07T05:53:51;1.38;;;0.90;;
11490;SDS011;5802;52.832;4.758;2022-12-07T05:56:17;2.03;;;1.20;;
11490;SDS011;5802;52.832;4.758;2022-12-07T05:58:44;1.10;;;0.80;;
11490;SDS011;5802;52.832;4.758;2022-12-07T06:01:30;1.63;;;0.90;;
11490;SDS011;5802;52.832;4.758;2022-12-07T06:03:56;1.23;;;0.80;;
11490;SDS011;5802;52.832;4.758;2022-12-07T06:06:23;1.73;;;1.00;;
11490;SDS011;5802;52.832;4.758;2022-12-07T06:08:50;1.83;;;1.05;;
11490;SDS011;5802;52.832;4.758;2022-12-07T06:11:16;2.35;;;0.90;;
11490;SDS011;5802;52.832;4.758;2022-12-07T06:14:01;1.45;;;0.80;;
11490;SDS011;5802;52.832;4.758;2022-12-07T06:16:27;3.75;;;1.08;;
11490;SDS011;5802;52.832;4.758;2022-12-07T06:18:55;2.75;;;0.93;;
11490;SDS011;5802;52.832;4.758;2022-12-07T06:21:22;1.48;;;0.90;;
11490;SDS011;5802;52.832;4.758;2022-12-07T06:23:50;1.92;;;0.80;;
11490;SDS011;5802;52.832;4.758;2022-12-07T06:26:17;1.50;;;0.95;;
11490;SDS011;5802;52.832;4.758;2022-12-07T06:28:44;2.45;;;0.93;;
11490;SDS011;5802;52.832;4.758;2022-12-07T06:31:10;2.97;;;1.17;;
11490;SDS011;5802;52.832;4.758;2022-12-07T06:33:38;1.13;;;0.85;;
11490;SDS011;5802;52.832;4.758;2022-12-07T06:36:05;1.15;;;0.70;;
11490;SDS011;5802;52.832;4.758;2022-12-07T06:38:32;1.27;;;0.80;;
11490;SDS011;5802;52.832;4.758;2022-12-07T06:40:59;1.00;;;0.65;;
11490;SDS011;5802;52.832;4.758;2022-12-07T06:43:26;1.63;;;1.02;;
11490;SDS011;5802;52.832;4.758;2022-12-07T06:45:52;3.58;;;0.90;;
11490;SDS011;5802;52.832;4.758;2022-12-07T06:48:19;0.73;;;0.70;;
11490;SDS011;5802;52.832;4.758;2022-12-07T06:50:47;1.27;;;0.70;;
11490;SDS011;5802;52.832;4.758;2022-12-07T06:53:14;1.75;;;0.90;;
11490;SDS011;5802;52.832;4.758;2022-12-07T06:55:41;0.93;;;0.70;;
11490;SDS011;5802;52.832;4.758;2022-12-07T06:58:07;1.50;;;0.88;;
11490;SDS011;5802;52.832;4.758;2022-12-07T07:00:34;0.88;;;0.70;;
11490;SDS011;5802;52.832;4.758;2022-12-07T07:03:01;2.42;;;0.80;;
11490;SDS011;5802;52.832;4.758;2022-12-07T07:05:27;1.10;;;0.63;;
11490;SDS011;5802;52.832;4.758;2022-12-07T07:07:55;1.63;;;1.10;;
11490;SDS011;5802;52.832;4.758;2022-12-07T07:10:22;1.58;;;0.70;;
11490;SDS011;5802;52.832;4.758;2022-12-07T07:12:49;1.83;;;0.80;;
11490;SDS011;5802;52.832;4.758;2022-12-07T07:15:15;1.52;;;0.77;;
11490;SDS011;5802;52.832;4.758;2022-12-07T07:17:42;2.08;;;0.65;;
11490;SDS011;5802;52.832;4.758;2022-12-07T07:20:10;1.23;;;0.60;;
11490;SDS011;5802;52.832;4.758;2022-12-07T07:22:37;1.35;;;0.70;;
11490;SDS011;5802;52.832;4.758;2022-12-07T07:25:05;0.77;;;0.60;;
11490;SDS011;5802;52.832;4.758;2022-12-07T07:27:32;1.15;;;0.77;;
11490;SDS011;5802;52.832;4.758;2022-12-07T07:29:59;0.82;;;0.73;;
11490;SDS011;5802;52.832;4.758;2022-12-07T07:32:26;1.88;;;1.00;;
11490;SDS011;5802;52.832;4.758;2022-12-07T07:34:53;1.52;;;0.70;;
11490;SDS011;5802;52.832;4.758;2022-12-07T07:37:19;2.28;;;0.80;;
11490;SDS011;5802;52.832;4.758;2022-12-07T07:39:46;1.50;;;0.73;;
11490;SDS011;5802;52.832;4.758;2022-12-07T07:42:14;1.33;;;0.80;;
11490;SDS011;5802;52.832;4.758;2022-12-07T07:44:41;2.85;;;1.08;;
11490;SDS011;5802;52.832;4.758;2022-12-07T07:47:08;1.85;;;0.88;;
11490;SDS011;5802;52.832;4.758;2022-12-07T07:49:34;1.25;;;0.85;;
11490;SDS011;5802;52.832;4.758;2022-12-07T07:52:01;4.65;;;1.17;;
11490;SDS011;5802;52.832;4.758;2022-12-07T07:54:28;1.35;;;0.73;;
11490;SDS011;5802;52.832;4.758;2022-12-07T07:56:55;1.95;;;0.80;;
11490;SDS011;5802;52.832;4.758;2022-12-07T07:59:23;2.38;;;0.90;;
11490;SDS011;5802;52.832;4.758;2022-12-07T08:01:50;2.95;;;0.80;;
11490;SDS011;5802;52.832;4.758;2022-12-07T08:04:17;3.38;;;0.70;;
11490;SDS011;5802;52.832;4.758;2022-12-07T08:06:44;1.08;;;0.60;;
11490;SDS011;5802;52.832;4.758;2022-12-07T08:09:11;2.88;;;0.90;;
11490;SDS011;5802;52.832;4.758;2022-12-07T08:11:38;2.47;;;0.70;;
11490;SDS011;5802;52.832;4.758;2022-12-07T08:14:05;2.05;;;0.95;;
11490;SDS011;5802;52.832;4.758;2022-12-07T08:16:33;2.70;;;0.88;;
11490;SDS011;5802;52.832;4.758;2022-12-07T08:19:00;1.42;;;0.68;;
11490;SDS011;5802;52.832;4.758;2022-12-07T08:21:26;4.32;;;0.68;;
11490;SDS011;5802;52.832;4.758;2022-12-07T08:23:53;2.10;;;0.93;;
11490;SDS011;5802;52.832;4.758;2022-12-07T08:26:20;1.58;;;0.93;;
11490;SDS011;5802;52.832;4.758;2022-12-07T08:28:47;1.17;;;0.70;;
11490;SDS011;5802;52.832;4.758;2022-12-07T08:31:15;4.25;;;0.52;;
11490;SDS011;5802;52.832;4.758;2022-12-07T08:33:45;2.33;;;0.90;;
11490;SDS011;5802;52.832;4.758;2022-12-07T08:36:13;2.30;;;0.88;;
11490;SDS011;5802;52.832;4.758;2022-12-07T08:38:40;2.20;;;0.82;;
11490;SDS011;5802;52.832;4.758;2022-12-07T08:41:07;1.05;;;0.60;;
11490;SDS011;5802;52.832;4.758;2022-12-07T08:43:35;1.52;;;0.90;;
11490;SDS011;5802;52.832;4.758;2022-12-07T08:46:04;6.20;;;0.88;;
11490;SDS011;5802;52.832;4.758;2022-12-07T08:48:35;1.15;;;0.60;;
11490;SDS011;5802;52.832;4.758;2022-12-07T08:51:06;0.85;;;0.60;;
11490;SDS011;5802;52.832;4.758;2022-12-07T08:53:33;1.52;;;0.70;;
11490;SDS011;5802;52.832;4.758;2022-12-07T08:56:01;3.00;;;0.77;;
11490;SDS011;5802;52.832;4.758;2022-12-07T08:58:27;2.85;;;0.70;;
11490;SDS011;5802;52.832;4.758;2022-12-07T09:00:54;4.35;;;0.77;;
11490;SDS011;5802;52.832;4.758;2022-12-07T09:03:21;1.10;;;0.65;;
11490;SDS011;5802;52.832;4.758;2022-12-07T09:05:47;1.17;;;0.82;;
11490;SDS011;5802;52.832;4.758;2022-12-07T09:08:17;2.85;;;0.65;;
11490;SDS011;5802;52.832;4.758;2022-12-07T09:10:44;2.08;;;0.68;;
11490;SDS011;5802;52.832;4.758;2022-12-07T09:13:11;1.23;;;0.65;;
11490;SDS011;5802;52.832;4.758;2022-12-07T09:15:38;1.65;;;0.82;;
11490;SDS011;5802;52.832;4.758;2022-12-07T09:18:04;1.45;;;0.75;;
11490;SDS011;5802;52.832;4.758;2022-12-07T09:20:31;1.65;;;0.60;;
11490;SDS011;5802;52.832;4.758;2022-12-07T09:22:58;1.25;;;0.60;;
11490;SDS011;5802;52.832;4.758;2022-12-07T09:25:26;3.65;;;0.70;;
11490;SDS011;5802;52.832;4.758;2022-12-07T09:27:56;2.22;;;0.75;;
11490;SDS011;5802;52.832;4.758;2022-12-07T09:30:23;2.58;;;0.70;;
11490;SDS011;5802;52.832;4.758;2022-12-07T09:32:51;2.20;;;0.68;;
11490;SDS011;5802;52.832;4.758;2022-12-07T09:35:18;1.40;;;0.73;;
11490;SDS011;5802;52.832;4.758;2022-12-07T09:37:45;2.05;;;0.68;;
11490;SDS011;5802;52.832;4.758;2022-12-07T09:40:12;1.38;;;0.77;;
11490;SDS011;5802;52.832;4.758;2022-12-07T09:42:42;1.70;;;0.60;;
11490;SDS011;5802;52.832;4.758;2022-12-07T09:45:13;2.00;;;0.75;;
11490;SDS011;5802;52.832;4.758;2022-12-07T09:47:42;2.38;;;0.80;;
11490;SDS011;5802;52.832;4.758;2022-12-07T09:50:12;2.58;;;0.70;;
11490;SDS011;5802;52.832;4.758;2022-12-07T09:52:41;1.55;;;0.90;;
11490;SDS011;5802;52.832;4.758;2022-12-07T09:55:11;2.88;;;0.60;;
11490;SDS011;5802;52.832;4.758;2022-12-07T09:57:39;1.27;;;0.73;;
11490;SDS011;5802;52.832;4.758;2022-12-07T10:00:11;5.60;;;0.77;;
11490;SDS011;5802;52.832;4.758;2022-12-07T10:02:40;2.35;;;0.73;;
11490;SDS011;5802;52.832;4.758;2022-12-07T10:05:11;1.40;;;0.77;;
11490;SDS011;5802;52.832;4.758;2022-12-07T10:07:40;2.00;;;0.93;;
11490;SDS011;5802;52.832;4.758;2022-12-07T10:10:10;1.45;;;0.80;;
11490;SDS011;5802;52.832;4.758;2022-12-07T10:12:53;2.25;;;0.90;;
11490;SDS011;5802;52.832;4.758;2022-12-07T10:15:22;5.80;;;1.05;;
11490;SDS011;5802;52.832;4.758;2022-12-07T10:17:50;1.50;;;0.60;;
11490;SDS011;5802;52.832;4.758;2022-12-07T10:20:20;1.95;;;0.70;;
11490;SDS011;5802;52.832;4.758;2022-12-07T10:22:59;1.40;;;0.43;;
11490;SDS011;5802;52.832;4.758;2022-12-07T10:25:29;1.98;;;0.85;;
11490;SDS011;5802;52.832;4.758;2022-12-07T10:28:01;1.60;;;0.70;;
11490;SDS011;5802;52.832;4.758;2022-12-07T10:30:47;1.33;;;0.55;;
11490;SDS011;5802;52.832;4.758;2022-12-07T10:33:27;1.58;;;0.70;;
11490;SDS011;5802;52.832;4.758;2022-12-07T10:35:55;1.25;;;0.60;;
11490;SDS011;5802;52.832;4.758;2022-12-07T10:38:24;4.00;;;0.98;;
11490;SDS011;5802;52.832;4.758;2022-12-07T10:41:05;3.17;;;0.70;;
11490;SDS011;5802;52.832;4.758;2022-12-07T10:43:34;1.85;;;0.73;;
11490;SDS011;5802;52.832;4.758;2022-12-07T10:48:55;2.00;;;0.68;;
11490;SDS011;5802;52.832;4.758;2022-12-07T10:51:32;3.35;;;0.65;;
11490;SDS011;5802;52.832;4.758;2022-12-07T10:54:09;1.80;;;0.75;;
11490;SDS011;5802;52.832;4.758;2022-12-07T10:56:54;2.45;;;1.00;;
11490;SDS011;5802;52.832;4.758;2022-12-07T11:02:25;4.22;;;1.00;;
11490;SDS011;5802;52.832;4.758;2022-12-07T11:05:06;2.95;;;1.27;;
11490;SDS011;5802;52.832;4.758;2022-12-07T11:07:44;2.80;;;0.90;;
11490;SDS011;5802;52.832;4.758;2022-12-07T11:10:18;2.40;;;1.10;;
11490;SDS011;5802;52.832;4.758;2022-12-07T11:12:56;2.03;;;1.23;;
11490;SDS011;5802;52.832;4.758;2022-12-07T11:15:33;2.30;;;1.15;;
11490;SDS011;5802;52.832;4.758;2022-12-07T11:18:11;2.47;;;1.15;;
11490;SDS011;5802;52.832;4.758;2022-12-07T11:20:43;4.22;;;1.20;;
11490;SDS011;5802;52.832;4.758;2022-12-07T11:23:17;4.25;;;1.30;;
11490;SDS011;5802;52.832;4.758;2022-12-07T11:25:54;2.38;;;1.00;;
11490;SDS011;5802;52.832;4.758;2022-12-07T11:28:30;1.38;;;0.90;;
11490;SDS011;5802;52.832;4.758;2022-12-07T11:31:14;5.45;;;1.25;;
11490;SDS011;5802;52.832;4.758;2022-12-07T11:33:49;2.20;;;1.10;;
11490;SDS011;5802;52.832;4.758;2022-12-07T11:36:35;2.55;;;1.25;;
11490;SDS011;5802;52.832;4.758;2022-12-07T11:39:07;3.35;;;0.90;;
11490;SDS011;5802;52.832;4.758;2022-12-07T11:41:42;7.10;;;1.17;;
11490;SDS011;5802;52.832;4.758;2022-12-07T11:44:15;1.63;;;0.90;;
11490;SDS011;5802;52.832;4.758;2022-12-07T11:46:51;1.88;;;0.95;;
11490;SDS011;5802;52.832;4.758;2022-12-07T11:49:24;2.05;;;0.98;;
11490;SDS011;5802;52.832;4.758;2022-12-07T11:52:01;2.05;;;0.98;;
11490;SDS011;5802;52.832;4.758;2022-12-07T11:54:32;2.25;;;0.88;;
11490;SDS011;5802;52.832;4.758;2022-12-07T11:57:02;1.88;;;1.00;;
11490;SDS011;5802;52.832;4.758;2022-12-07T11:59:32;4.00;;;0.95;;
11490;SDS011;5802;52.832;4.758;2022-12-07T12:02:13;1.92;;;0.90;;
11490;SDS011;5802;52.832;4.758;2022-12-07T12:04:47;4.20;;;0.88;;
11490;SDS011;5802;52.832;4.758;2022-12-07T12:07:22;5.20;;;1.20;;
11490;SDS011;5802;52.832;4.758;2022-12-07T12:09:52;2.22;;;0.90;;
11490;SDS011;5802;52.832;4.758;2022-12-07T12:12:27;2.85;;;1.17;;
11490;SDS011;5802;52.832;4.758;2022-12-07T12:15:10;2.00;;;1.00;;
11490;SDS011;5802;52.832;4.758;2022-12-07T12:20:43;2.53;;;0.75;;
11490;SDS011;5802;52.832;4.758;2022-12-07T12:23:14;3.38;;;1.10;;
11490;SDS011;5802;52.832;4.758;2022-12-07T12:25:44;3.70;;;1.00;;
11490;SDS011;5802;52.832;4.758;2022-12-07T12:28:20;3.45;;;0.77;;
11490;SDS011;5802;52.832;4.758;2022-12-07T12:31:05;2.10;;;1.00;;
11490;SDS011;5802;52.832;4.758;2022-12-07T12:33:36;2.53;;;0.80;;
11490;SDS011;5802;52.832;4.758;2022-12-07T12:36:24;1.77;;;0.57;;
11490;SDS011;5802;52.832;4.758;2022-12-07T12:41:51;3.63;;;0.85;;
11490;SDS011;5802;52.832;4.758;2022-12-07T12:47:51;1.90;;;0.73;;
11490;SDS011;5802;52.832;4.758;2022-12-07T12:50:25;2.22;;;1.10;;
11490;SDS011;5802;52.832;4.758;2022-12-07T12:53:03;3.92;;;0.90;;
11490;SDS011;5802;52.832;4.758;2022-12-07T12:58:46;3.58;;;1.20;;
11490;SDS011;5802;52.832;4.758;2022-12-07T13:04:27;3.30;;;1.17;;
11490;SDS011;5802;52.832;4.758;2022-12-07T13:07:10;3.47;;;0.73;;
11490;SDS011;5802;52.832;4.758;2022-12-07T13:09:39;3.10;;;1.27;;
11490;SDS011;5802;52.832;4.758;2022-12-07T13:12:12;3.42;;;0.80;;
11490;SDS011;5802;52.832;4.758;2022-12-07T13:14:54;2.55;;;1.13;;
11490;SDS011;5802;52.832;4.758;2022-12-07T13:23:13;2.25;;;0.93;;
11490;SDS011;5802;52.832;4.758;2022-12-07T13:25:44;3.65;;;1.27;;
11490;SDS011;5802;52.832;4.758;2022-12-07T13:28:26;5.65;;;1.00;;
11490;SDS011;5802;52.832;4.758;2022-12-07T13:31:14;1.42;;;0.73;;
11490;SDS011;5802;52.832;4.758;2022-12-07T13:33:46;2.47;;;0.90;;
11490;SDS011;5802;52.832;4.758;2022-12-07T13:36:16;2.25;;;0.98;;
11490;SDS011;5802;52.832;4.758;2022-12-07T13:41:43;3.80;;;0.70;;
11490;SDS011;5802;52.832;4.758;2022-12-07T13:44:11;5.03;;;0.90;;
11490;SDS011;5802;52.832;4.758;2022-12-07T13:46:44;3.50;;;1.00;;
11490;SDS011;5802;52.832;4.758;2022-12-07T13:49:17;2.67;;;0.77;;
11490;SDS011;5802;52.832;4.758;2022-12-07T13:51:46;2.83;;;0.85;;
11490;SDS011;5802;52.832;4.758;2022-12-07T13:54:14;5.82;;;0.90;;
11490;SDS011;5802;52.832;4.758;2022-12-07T13:56:42;2.33;;;1.20;;
11490;SDS011;5802;52.832;4.758;2022-12-07T13:59:12;4.03;;;0.82;;
11490;SDS011;5802;52.832;4.758;2022-12-07T14:01:40;2.20;;;1.02;;
11490;SDS011;5802;52.832;4.758;2022-12-07T14:04:16;1.15;;;0.70;;
11490;SDS011;5802;52.832;4.758;2022-12-07T14:06:55;3.67;;;0.90;;
11490;SDS011;5802;52.832;4.758;2022-12-07T14:09:24;1.50;;;0.75;;
11490;SDS011;5802;52.832;4.758;2022-12-07T14:11:53;3.30;;;1.00;;
11490;SDS011;5802;52.832;4.758;2022-12-07T14:14:21;2.78;;;0.80;;
11490;SDS011;5802;52.832;4.758;2022-12-07T14:16:59;3.55;;;0.95;;
11490;SDS011;5802;52.832;4.758;2022-12-07T14:19:42;1.85;;;0.85;;
11490;SDS011;5802;52.832;4.758;2022-12-07T14:22:21;4.43;;;0.70;;
11490;SDS011;5802;52.832;4.758;2022-12-07T14:24:57;0.98;;;0.73;;
11490;SDS011;5802;52.832;4.758;2022-12-07T14:27:47;1.98;;;0.80;;
11490;SDS011;5802;52.832;4.758;2022-12-07T14:30:15;2.40;;;0.90;;
11490;SDS011;5802;52.832;4.758;2022-12-07T14:32:44;2.67;;;1.30;;
11490;SDS011;5802;52.832;4.758;2022-12-07T14:35:14;0.82;;;0.52;;
11490;SDS011;5802;52.832;4.758;2022-12-07T14:37:44;1.23;;;0.77;;
11490;SDS011;5802;52.832;4.758;2022-12-07T14:40:15;2.10;;;0.70;;
11490;SDS011;5802;52.832;4.758;2022-12-07T14:42:43;2.08;;;0.73;;
11490;SDS011;5802;52.832;4.758;2022-12-07T14:45:15;1.65;;;0.90;;
11490;SDS011;5802;52.832;4.758;2022-12-07T14:47:44;2.50;;;0.90;;
11490;SDS011;5802;52.832;4.758;2022-12-07T14:50:12;3.15;;;0.85;;
11490;SDS011;5802;52.832;4.758;2022-12-07T14:52:39;1.13;;;0.68;;
11490;SDS011;5802;52.832;4.758;2022-12-07T14:55:12;1.33;;;0.73;;
11490;SDS011;5802;52.832;4.758;2022-12-07T14:57:44;3.05;;;0.90;;
11490;SDS011;5802;52.832;4.758;2022-12-07T15:00:15;1.52;;;0.70;;
11490;SDS011;5802;52.832;4.758;2022-12-07T15:02:42;1.38;;;0.80;;
11490;SDS011;5802;52.832;4.758;2022-12-07T15:05:09;1.38;;;0.70;;
11490;SDS011;5802;52.832;4.758;2022-12-07T15:07:36;1.00;;;0.60;;
11490;SDS011;5802;52.832;4.758;2022-12-07T15:10:03;2.72;;;0.70;;
11490;SDS011;5802;52.832;4.758;2022-12-07T15:12:33;2.85;;;0.80;;
11490;SDS011;5802;52.832;4.758;2022-12-07T15:14:59;1.77;;;0.70;;
11490;SDS011;5802;52.832;4.758;2022-12-07T15:17:26;1.10;;;0.60;;
11490;SDS011;5802;52.832;4.758;2022-12-07T15:19:53;1.75;;;0.60;;
11490;SDS011;5802;52.832;4.758;2022-12-07T15:22:20;1.23;;;0.75;;
11490;SDS011;5802;52.832;4.758;2022-12-07T15:24:46;1.67;;;0.63;;
11490;SDS011;5802;52.832;4.758;2022-12-07T15:27:13;1.95;;;0.60;;
11490;SDS011;5802;52.832;4.758;2022-12-07T15:29:41;2.05;;;0.63;;
11490;SDS011;5802;52.832;4.758;2022-12-07T15:32:08;1.38;;;0.65;;
11490;SDS011;5802;52.832;4.758;2022-12-07T15:34:35;3.55;;;0.60;;
11490;SDS011;5802;52.832;4.758;2022-12-07T15:37:01;1.30;;;0.60;;
11490;SDS011;5802;52.832;4.758;2022-12-07T15:39:29;1.02;;;0.43;;
11490;SDS011;5802;52.832;4.758;2022-12-07T15:41:55;0.77;;;0.60;;
11490;SDS011;5802;52.832;4.758;2022-12-07T15:44:22;2.05;;;0.50;;
11490;SDS011;5802;52.832;4.758;2022-12-07T15:47:07;3.83;;;0.85;;
11490;SDS011;5802;52.832;4.758;2022-12-07T15:49:34;1.05;;;0.50;;
11490;SDS011;5802;52.832;4.758;2022-12-07T15:52:01;1.77;;;0.80;;